createdAt,value
2019-04-26T00:01:18.844Z,1.72
2019-04-26T00:03:48.591Z,1.27
2019-04-26T00:06:18.651Z,1.77
2019-04-26T00:08:52.550Z,1.37
2019-04-26T00:11:28.591Z,3.10
2019-04-26T00:14:27.797Z,1.32
2019-04-26T00:17:03.215Z,1.42
2019-04-26T00:19:32.597Z,1.90
2019-04-26T00:22:02.030Z,1.25
2019-04-26T00:24:31.318Z,0.80
2019-04-26T00:27:00.458Z,1.72
2019-04-26T00:29:29.578Z,1.50
2019-04-26T00:31:58.725Z,2.12
2019-04-26T00:34:27.930Z,0.78
2019-04-26T00:36:57.044Z,0.98
2019-04-26T00:39:26.184Z,2.27
2019-04-26T00:41:55.622Z,2.27
2019-04-26T00:44:24.762Z,1.37
2019-04-26T00:46:56.679Z,1.98
2019-04-26T00:49:27.653Z,1.27
2019-04-26T00:51:56.973Z,1.55
2019-04-26T00:54:27.294Z,2.12
2019-04-26T00:56:56.847Z,1.70
2019-04-26T00:59:26.366Z,2.33
2019-04-26T01:02:00.748Z,2.08
2019-04-26T01:04:29.840Z,0.93
2019-04-26T01:06:59.757Z,1.57
2019-04-26T01:09:28.880Z,1.72
2019-04-26T01:11:58.074Z,1.77
2019-04-26T01:14:27.205Z,1.85
2019-04-26T01:16:56.290Z,1.85
2019-04-26T01:19:26.546Z,0.90
2019-04-26T01:22:00.304Z,2.10
2019-04-26T01:24:32.312Z,2.12
2019-04-26T01:27:04.354Z,1.10
2019-04-26T01:29:37.536Z,1.50
2019-04-26T01:32:10.788Z,1.87
2019-04-26T01:34:41.400Z,2.22
2019-04-26T01:37:11.046Z,1.52
2019-04-26T01:39:45.915Z,1.37
2019-04-26T01:42:37.921Z,1.20
2019-04-26T01:45:24.246Z,2.10
2019-04-26T01:47:56.318Z,1.77
2019-04-26T01:50:27.833Z,1.52
2019-04-26T01:52:58.242Z,1.20
2019-04-26T01:55:31.221Z,1.57
2019-04-26T01:58:03.715Z,1.52
2019-04-26T02:00:47.850Z,1.52
2019-04-26T02:03:21.498Z,1.30
2019-04-26T02:05:52.377Z,1.80
2019-04-26T02:08:21.934Z,1.98
2019-04-26T02:10:52.465Z,1.35
2019-04-26T02:13:22.517Z,2.20
2019-04-26T02:15:52.691Z,1.20
2019-04-26T02:18:21.809Z,2.47
2019-04-26T02:21:35.474Z,0.93
2019-04-26T02:24:23.914Z,1.40
2019-04-26T02:26:54.990Z,1.35
2019-04-26T02:29:27.051Z,1.60
2019-04-26T02:32:00.472Z,2.90
2019-04-26T02:34:33.318Z,1.20
2019-04-26T02:37:04.869Z,1.37
2019-04-26T02:39:39.292Z,0.95
2019-04-26T02:42:14.224Z,1.20
2019-04-26T02:44:55.104Z,3.15
2019-04-26T02:47:57.729Z,2.70
2019-04-26T02:50:34.816Z,2.37
2019-04-26T02:53:12.561Z,3.80
2019-04-26T02:56:22.688Z,1.67
2019-04-26T02:59:18.114Z,3.40
2019-04-26T03:04:16.819Z,2.95
2019-04-26T03:07:02.375Z,2.65
2019-04-26T03:09:19.574Z,2.37
2019-04-26T03:11:52.280Z,2.60
2019-04-26T03:14:39.800Z,2.95
2019-04-26T03:17:28.566Z,3.05
2019-04-26T03:20:02.571Z,1.60
2019-04-26T03:23:08.500Z,3.40
2019-04-26T03:28:39.974Z,4.75
2019-04-26T03:31:23.209Z,1.77
2019-04-26T03:34:13.899Z,3.70
2019-04-26T03:37:27.830Z,2.62
2019-04-26T03:40:12.710Z,2.85
2019-04-26T03:42:54.057Z,2.87
2019-04-26T03:45:37.072Z,3.12
2019-04-26T03:48:22.641Z,3.70
2019-04-26T03:51:04.807Z,4.20
2019-04-26T03:53:56.192Z,3.58
2019-04-26T03:56:54.951Z,4.10
2019-04-26T03:59:54.714Z,4.15
2019-04-26T04:02:55.264Z,6.65
2019-04-26T04:05:44.312Z,7.37
2019-04-26T04:08:25.518Z,4.62
2019-04-26T04:10:59.443Z,5.10
2019-04-26T04:14:07.717Z,7.42
2019-04-26T04:17:27.206Z,6.37
2019-04-26T04:20:48.071Z,13.40
2019-04-26T04:23:50.045Z,14.30
2019-04-26T04:26:25.979Z,11.28
2019-04-26T04:29:20.343Z,14.13
2019-04-26T04:31:53.858Z,12.82
2019-04-26T04:34:41.554Z,15.80
2019-04-26T04:37:12.093Z,15.43
2019-04-26T04:40:26.284Z,13.85
2019-04-26T04:43:20.347Z,14.30
2019-04-26T04:46:34.209Z,18.10
2019-04-26T04:49:31.534Z,19.07
2019-04-26T04:52:38.708Z,19.65
2019-04-26T04:55:18.077Z,21.82
2019-04-26T04:58:03.822Z,19.98
2019-04-26T05:01:13.914Z,22.32
2019-04-26T05:04:01.184Z,18.70
2019-04-26T05:07:08.708Z,18.77
2019-04-26T05:09:50.332Z,18.10
2019-04-26T05:12:31.290Z,22.45
2019-04-26T05:15:48.464Z,24.63
2019-04-26T05:18:54.816Z,21.85
2019-04-26T05:22:17.014Z,23.22
2019-04-26T05:25:18.796Z,24.90
2019-04-26T05:28:10.744Z,22.15
2019-04-26T05:31:13.991Z,20.50
2019-04-26T05:34:20.088Z,22.98
2019-04-26T05:37:16.114Z,21.00
2019-04-26T05:39:59.100Z,21.12
2019-04-26T05:43:01.373Z,21.93
2019-04-26T05:46:02.361Z,22.55
2019-04-26T05:49:00.784Z,21.23
2019-04-26T05:51:49.324Z,18.23
2019-04-26T05:54:59.364Z,22.82
2019-04-26T05:57:41.671Z,24.60
2019-04-26T06:00:39.703Z,23.38
2019-04-26T06:03:50.879Z,19.30
2019-04-26T06:06:32.721Z,23.02
2019-04-26T06:09:51.829Z,22.25
2019-04-26T06:12:40.592Z,22.30
2019-04-26T06:15:31.122Z,23.12
2019-04-26T06:18:47.817Z,22.27
2019-04-26T06:21:32.341Z,24.23
2019-04-26T06:24:39.343Z,28.30
2019-04-26T06:27:39.183Z,21.42
2019-04-26T06:30:16.959Z,27.32
2019-04-26T06:33:30.205Z,25.52
2019-04-26T06:36:04.417Z,28.25
2019-04-26T06:39:13.045Z,24.27
2019-04-26T06:42:11.789Z,27.65
2019-04-26T06:45:33.060Z,27.10
2019-04-26T06:48:12.515Z,30.97
2019-04-26T06:50:49.363Z,28.77
2019-04-26T06:53:51.529Z,27.87
2019-04-26T06:56:53.797Z,27.93
2019-04-26T06:59:52.669Z,28.75
2019-04-26T07:02:42.999Z,27.15
2019-04-26T07:05:21.641Z,29.40
2019-04-26T07:08:25.833Z,32.90
2019-04-26T07:11:53.553Z,25.45
2019-04-26T07:14:44.086Z,25.88
2019-04-26T07:17:19.418Z,28.10
2019-04-26T07:20:46.329Z,23.25
2019-04-26T07:23:59.452Z,20.60
2019-04-26T07:27:30.705Z,23.65
2019-04-26T07:30:55.992Z,18.45
2019-04-26T07:33:40.614Z,21.77
2019-04-26T07:36:32.209Z,18.60
2019-04-26T07:39:41.257Z,18.82
2019-04-26T07:42:46.473Z,14.73
2019-04-26T07:45:54.324Z,15.95
2019-04-26T07:49:15.227Z,15.65
2019-04-26T07:52:08.733Z,16.60
2019-04-26T07:55:13.479Z,16.40
2019-04-26T07:58:23.817Z,17.25
2019-04-26T08:01:07.471Z,14.87
2019-04-26T08:03:49.701Z,17.52
2019-04-26T08:06:35.277Z,17.15
2019-04-26T08:09:09.696Z,18.12
2019-04-26T08:12:01.794Z,16.67
2019-04-26T08:14:38.815Z,14.30
2019-04-26T08:17:50.458Z,17.92
2019-04-26T08:20:36.186Z,14.83
2019-04-26T08:23:16.985Z,14.65
2019-04-26T08:26:00.024Z,15.13
2019-04-26T08:28:32.558Z,11.48
2019-04-26T08:31:24.281Z,13.05
2019-04-26T08:34:01.850Z,15.78
2019-04-26T08:36:35.043Z,16.27
2019-04-26T08:39:09.466Z,14.50
2019-04-26T08:41:40.900Z,12.47
2019-04-26T08:44:21.462Z,10.45
2019-04-26T08:47:14.165Z,13.32
2019-04-26T08:49:51.883Z,12.00
2019-04-26T08:52:25.217Z,12.35
2019-04-26T08:54:57.277Z,14.33
2019-04-26T08:57:29.833Z,15.48
2019-04-26T09:00:01.990Z,12.47
2019-04-26T09:02:51.302Z,10.28
2019-04-26T09:05:45.618Z,12.50
2019-04-26T09:08:16.984Z,9.80
2019-04-26T09:10:48.898Z,11.15
2019-04-26T09:13:20.265Z,12.00
2019-04-26T09:16:11.223Z,9.98
2019-04-26T09:18:43.654Z,10.98
2019-04-26T09:21:13.369Z,10.65
2019-04-26T09:24:00.010Z,12.47
2019-04-26T09:26:50.505Z,11.22
2019-04-26T09:29:38.598Z,10.10
2019-04-26T09:32:13.034Z,8.10
2019-04-26T09:34:42.819Z,9.43
2019-04-26T09:37:12.226Z,9.30
2019-04-26T09:39:42.021Z,8.78
2019-04-26T09:45:15.972Z,10.30
2019-04-26T09:47:51.374Z,8.70
2019-04-26T09:50:39.482Z,9.15
2019-04-26T09:53:09.129Z,7.53
2019-04-26T09:55:38.287Z,8.25
2019-04-26T09:58:08.736Z,6.92
2019-04-26T10:00:38.500Z,6.22
2019-04-26T10:03:09.491Z,6.42
2019-04-26T10:05:38.642Z,5.80
2019-04-26T10:08:08.371Z,6.78
2019-04-26T10:10:38.798Z,5.53
2019-04-26T10:13:33.005Z,6.40
2019-04-26T10:16:33.465Z,5.70
2019-04-26T10:19:09.535Z,4.67
2019-04-26T10:21:38.695Z,7.15
2019-04-26T10:24:08.448Z,5.95
2019-04-26T10:26:38.037Z,7.35
2019-04-26T10:29:07.185Z,7.72
2019-04-26T10:31:36.424Z,6.20
2019-04-26T10:34:07.677Z,6.08
2019-04-26T10:36:36.589Z,7.35
2019-04-26T10:39:09.153Z,5.30
2019-04-26T10:41:38.549Z,5.37
2019-04-26T10:44:07.678Z,4.92
2019-04-26T10:46:36.805Z,5.40
2019-04-26T10:49:41.300Z,4.70
2019-04-26T10:52:17.028Z,5.83
2019-04-26T10:54:49.285Z,6.75
2019-04-26T10:57:30.077Z,5.22
2019-04-26T11:00:02.324Z,8.18
2019-04-26T11:02:31.417Z,5.65
2019-04-26T11:05:00.618Z,8.20
2019-04-26T11:07:29.735Z,6.45
2019-04-26T11:09:58.879Z,6.45
2019-04-26T11:12:28.008Z,6.20
2019-04-26T11:14:58.222Z,5.85
2019-04-26T11:17:27.395Z,5.17
2019-04-26T11:19:56.513Z,5.10
2019-04-26T11:22:29.411Z,6.03
2019-04-26T11:24:56.773Z,5.65
2019-04-26T11:27:26.089Z,6.03
2019-04-26T11:29:55.392Z,7.42
2019-04-26T11:32:24.619Z,7.17
2019-04-26T11:34:54.543Z,5.50
2019-04-26T11:37:24.596Z,6.03
2019-04-26T11:39:54.008Z,5.00
2019-04-26T11:42:23.137Z,5.70
2019-04-26T11:44:52.298Z,5.90
2019-04-26T11:47:21.454Z,6.10
2019-04-26T11:49:50.885Z,6.20
2019-04-26T11:52:20.065Z,6.58
2019-04-26T11:54:51.339Z,6.42
2019-04-26T11:57:20.114Z,7.20
2019-04-26T11:59:49.294Z,4.95
2019-04-26T12:02:18.452Z,7.15
2019-04-26T12:05:06.536Z,5.62
2019-04-26T12:07:50.162Z,4.97
2019-04-26T12:10:19.383Z,5.05
2019-04-26T12:12:51.886Z,5.20
2019-04-26T12:15:29.670Z,4.67
2019-04-26T12:17:58.417Z,4.87
2019-04-26T12:20:22.403Z,5.62
2019-04-26T12:22:52.088Z,5.47
2019-04-26T12:25:21.220Z,6.12
2019-04-26T12:27:53.287Z,5.37
2019-04-26T12:30:24.955Z,4.87
2019-04-26T12:32:52.172Z,7.40
2019-04-26T12:35:21.326Z,4.90
2019-04-26T12:37:54.305Z,6.42
2019-04-26T12:40:21.312Z,6.30
2019-04-26T12:42:50.420Z,7.92
2019-04-26T12:45:56.602Z,6.95
2019-04-26T12:48:25.860Z,4.97
2019-04-26T12:50:55.022Z,6.55
2019-04-26T12:53:26.816Z,6.22
2019-04-26T12:55:58.295Z,8.13
2019-04-26T12:58:26.163Z,6.95
2019-04-26T13:00:55.323Z,6.10
2019-04-26T13:03:24.870Z,6.92
2019-04-26T13:05:58.178Z,8.30
2019-04-26T13:08:26.153Z,7.33
2019-04-26T13:11:15.034Z,7.28
2019-04-26T13:14:08.634Z,8.68
2019-04-26T13:16:57.235Z,8.78
2019-04-26T13:19:26.590Z,8.55
2019-04-26T13:21:55.832Z,8.78
2019-04-26T13:24:25.056Z,8.55
2019-04-26T13:26:54.202Z,8.90
2019-04-26T13:29:23.331Z,9.68
2019-04-26T13:31:52.464Z,10.23
2019-04-26T13:34:21.598Z,13.88
2019-04-26T13:36:50.721Z,10.20
2019-04-26T13:39:22.395Z,11.05
2019-04-26T13:42:02.173Z,10.93
2019-04-26T13:44:40.863Z,14.25
2019-04-26T13:47:25.205Z,12.15
2019-04-26T13:50:22.425Z,13.08
2019-04-26T13:52:50.455Z,14.18
2019-04-26T13:55:19.612Z,14.10
2019-04-26T13:57:48.743Z,14.55
2019-04-26T14:00:23.674Z,12.53
2019-04-26T14:02:52.842Z,14.98
2019-04-26T14:05:21.985Z,15.93
2019-04-26T14:07:51.124Z,13.93
2019-04-26T14:10:20.469Z,15.08
2019-04-26T14:12:50.160Z,19.67
2019-04-26T14:15:20.513Z,16.00
2019-04-26T14:17:49.681Z,19.17
2019-04-26T14:20:19.213Z,15.20
2019-04-26T14:23:15.272Z,16.70
2019-04-26T14:26:01.233Z,16.32
2019-04-26T14:28:30.788Z,14.58
2019-04-26T14:31:00.030Z,20.15
2019-04-26T14:33:30.813Z,16.17
2019-04-26T14:36:00.065Z,21.60
2019-04-26T14:38:35.634Z,16.42
2019-04-26T14:41:03.973Z,20.08
2019-04-26T14:43:40.733Z,29.65
2019-04-26T14:46:01.892Z,26.75
2019-04-26T14:48:36.178Z,28.62
2019-04-26T14:51:08.162Z,30.75
2019-04-26T14:53:36.283Z,23.73
2019-04-26T14:56:03.815Z,22.50
2019-04-26T14:58:33.715Z,30.30
2019-04-26T15:01:04.492Z,23.67
2019-04-26T15:04:02.855Z,28.35
2019-04-26T15:06:35.163Z,31.48
2019-04-26T15:09:17.187Z,33.63
2019-04-26T15:11:37.161Z,34.63
2019-04-26T15:14:06.303Z,35.98
2019-04-26T15:16:35.457Z,38.13
2019-04-26T15:19:06.220Z,33.25
2019-04-26T15:21:35.469Z,40.33
2019-04-26T15:24:05.058Z,41.45
2019-04-26T15:26:34.489Z,43.83
2019-04-26T15:29:04.535Z,32.70
2019-04-26T15:31:33.843Z,29.80
2019-04-26T15:34:03.347Z,43.63
2019-04-26T15:36:32.631Z,41.02
2019-04-26T15:39:03.516Z,41.75
2019-04-26T15:41:52.564Z,40.63
2019-04-26T15:44:30.265Z,37.78
2019-04-26T15:47:11.071Z,43.10
2019-04-26T15:49:59.180Z,46.25
2019-04-26T15:52:30.087Z,40.70
2019-04-26T15:55:03.521Z,48.73
2019-04-26T15:57:32.478Z,45.45
2019-04-26T16:00:03.948Z,45.70
2019-04-26T16:02:33.949Z,50.88
2019-04-26T16:05:03.087Z,43.17
2019-04-26T16:07:34.504Z,53.17
2019-04-26T16:10:04.322Z,37.10
2019-04-26T16:12:33.544Z,42.73
2019-04-26T16:15:06.566Z,43.98
2019-04-26T16:17:36.131Z,48.35
2019-04-26T16:20:04.827Z,40.83
2019-04-26T16:22:34.063Z,40.48
2019-04-26T16:25:05.227Z,41.80
2019-04-26T16:27:34.727Z,38.38
2019-04-26T16:30:19.443Z,43.35
2019-04-26T16:33:16.662Z,39.23
2019-04-26T16:35:45.808Z,42.60
2019-04-26T16:38:33.178Z,44.00
2019-04-26T16:41:03.283Z,42.88
2019-04-26T16:43:37.679Z,42.13
2019-04-26T16:46:03.623Z,44.18
2019-04-26T16:48:32.766Z,38.75
2019-04-26T16:51:08.592Z,40.03
2019-04-26T16:53:46.332Z,44.83
2019-04-26T16:56:03.808Z,43.60
2019-04-26T16:58:38.111Z,48.85
2019-04-26T17:01:04.705Z,46.37
2019-04-26T17:03:38.155Z,38.08
2019-04-26T17:06:10.843Z,45.98
2019-04-26T17:08:43.346Z,37.98
2019-04-26T17:11:07.657Z,38.75
2019-04-26T17:13:48.231Z,39.10
2019-04-26T17:16:07.671Z,42.45
2019-04-26T17:18:42.708Z,49.67
2019-04-26T17:21:12.811Z,47.23
2019-04-26T17:23:55.158Z,35.23
2019-04-26T17:26:49.490Z,46.68
2019-04-26T17:29:18.680Z,42.95
2019-04-26T17:31:47.851Z,53.02
2019-04-26T17:34:17.162Z,47.20
2019-04-26T17:36:50.345Z,46.55
2019-04-26T17:39:18.410Z,49.73
2019-04-26T17:41:50.638Z,42.20
2019-04-26T17:44:20.640Z,50.75
2019-04-26T17:46:56.213Z,44.80
2019-04-26T17:49:21.405Z,40.92
2019-04-26T17:51:51.757Z,45.33
2019-04-26T17:54:41.694Z,51.90
2019-04-26T17:56:52.833Z,39.88
2019-04-26T17:59:33.631Z,36.80
2019-04-26T18:02:00.981Z,37.13
2019-04-26T18:04:32.379Z,41.55
2019-04-26T18:07:02.864Z,44.77
2019-04-26T18:09:41.374Z,43.45
2019-04-26T18:12:01.787Z,44.45
2019-04-26T18:14:30.674Z,45.45
2019-04-26T18:17:04.686Z,39.25
2019-04-26T18:20:07.846Z,36.20
2019-04-26T18:22:49.205Z,36.40
2019-04-26T18:25:18.339Z,43.55
2019-04-26T18:27:47.477Z,37.13
2019-04-26T18:30:17.144Z,39.85
2019-04-26T18:32:47.640Z,37.13
2019-04-26T18:35:17.340Z,49.05
2019-04-26T18:37:46.478Z,44.88
2019-04-26T18:40:15.622Z,33.58
2019-04-26T18:42:44.736Z,32.50
2019-04-26T18:45:14.046Z,41.18
2019-04-26T18:47:43.713Z,41.98
2019-04-26T18:50:15.492Z,36.35
2019-04-26T18:53:13.942Z,34.40
2019-04-26T18:55:43.376Z,38.15
2019-04-26T18:58:13.511Z,34.50
2019-04-26T19:00:43.824Z,32.33
2019-04-26T19:03:14.168Z,39.92
2019-04-26T19:05:43.907Z,45.05
2019-04-26T19:08:14.815Z,39.50
2019-04-26T19:10:43.995Z,39.60
2019-04-26T19:13:44.102Z,42.50
2019-04-26T19:16:38.477Z,42.60
2019-04-26T19:19:32.688Z,37.67
2019-04-26T19:22:03.764Z,44.10
2019-04-26T19:24:32.940Z,39.63
2019-04-26T19:27:04.131Z,48.13
2019-04-26T19:29:35.988Z,39.80
2019-04-26T19:32:04.626Z,39.67
2019-04-26T19:34:33.710Z,39.50
2019-04-26T19:37:03.438Z,35.78
2019-04-26T19:39:35.486Z,40.15
2019-04-26T19:42:05.987Z,37.33
2019-04-26T19:44:34.598Z,40.45
2019-04-26T19:47:43.904Z,36.38
2019-04-26T19:50:21.885Z,35.60
2019-04-26T19:53:21.136Z,45.78
2019-04-26T19:56:24.814Z,40.20
2019-04-26T19:58:50.565Z,39.75
2019-04-26T20:01:23.292Z,36.58
2019-04-26T20:03:55.046Z,36.35
2019-04-26T20:06:22.066Z,35.08
2019-04-26T20:08:51.944Z,44.25
2019-04-26T20:11:21.412Z,42.58
2019-04-26T20:13:51.902Z,45.60
2019-04-26T20:16:22.674Z,41.45
2019-04-26T20:18:52.440Z,39.15
2019-04-26T20:21:21.835Z,43.30
2019-04-26T20:23:53.910Z,32.42
2019-04-26T20:26:22.574Z,42.70
2019-04-26T20:28:51.880Z,30.85
2019-04-26T20:31:48.760Z,39.80
2019-04-26T20:34:18.449Z,38.65
2019-04-26T20:36:47.994Z,30.50
2019-04-26T20:39:21.076Z,45.63
2019-04-26T20:42:00.519Z,40.88
2019-04-26T20:44:23.774Z,36.95
2019-04-26T20:46:51.823Z,40.38
2019-04-26T20:49:21.842Z,40.50
2019-04-26T20:51:51.878Z,42.05
2019-04-26T20:54:22.464Z,42.70
2019-04-26T20:56:55.363Z,45.90
2019-04-26T20:59:23.647Z,46.28
2019-04-26T21:02:03.375Z,41.77
2019-04-26T21:04:35.099Z,41.08
2019-04-26T21:06:54.767Z,34.33
2019-04-26T21:09:24.436Z,39.58
2019-04-26T21:11:53.572Z,41.20
2019-04-26T21:14:22.772Z,37.67
2019-04-26T21:16:51.910Z,38.67
2019-04-26T21:19:21.074Z,40.73
2019-04-26T21:21:52.217Z,38.48
2019-04-26T21:24:23.623Z,34.38
2019-04-26T21:27:07.534Z,35.65
2019-04-26T21:30:07.720Z,38.35
2019-04-26T21:33:13.820Z,33.95
2019-04-26T21:35:49.480Z,43.95
2019-04-26T21:38:39.321Z,36.75
2019-04-26T21:41:18.014Z,41.18
2019-04-26T21:43:47.173Z,32.95
2019-04-26T21:46:19.119Z,45.00
2019-04-26T21:48:47.152Z,39.25
2019-04-26T21:51:16.377Z,40.78
2019-04-26T21:53:45.523Z,32.53
2019-04-26T21:56:14.913Z,33.58
2019-04-26T21:58:46.142Z,37.55
2019-04-26T22:01:19.383Z,41.40
2019-04-26T22:03:54.322Z,39.00
2019-04-26T22:06:24.012Z,31.87
2019-04-26T22:08:58.858Z,34.33
2019-04-26T22:11:26.067Z,35.88
2019-04-26T22:14:03.216Z,33.78
2019-04-26T22:16:43.211Z,35.15
2019-04-26T22:19:23.755Z,37.83
2019-04-26T22:22:11.744Z,36.05
2019-04-26T22:24:40.941Z,38.10
2019-04-26T22:27:10.088Z,37.80
2019-04-26T22:29:39.233Z,34.13
2019-04-26T22:32:11.420Z,39.55
2019-04-26T22:34:41.445Z,44.77
2019-04-26T22:37:12.734Z,39.05
2019-04-26T22:39:44.199Z,43.38
2019-04-26T22:42:13.798Z,31.42
2019-04-26T22:44:48.642Z,38.90
2019-04-26T22:49:53.590Z,36.38
2019-04-26T22:52:23.202Z,34.90
2019-04-26T22:54:53.872Z,40.40
2019-04-26T22:57:23.332Z,39.38
2019-04-26T22:59:53.574Z,40.35
2019-04-26T23:02:27.546Z,40.80
2019-04-26T23:04:55.895Z,38.92
2019-04-26T23:07:26.222Z,36.03
2019-04-26T23:09:55.686Z,37.30
2019-04-26T23:12:49.585Z,36.68
2019-04-26T23:15:49.922Z,31.65
2019-04-26T23:18:47.039Z,29.05
2019-04-26T23:21:35.770Z,26.85
2019-04-26T23:24:05.070Z,40.60
2019-04-26T23:26:37.539Z,38.83
2019-04-26T23:29:08.707Z,29.18
2019-04-26T23:31:37.524Z,27.17
2019-04-26T23:34:06.713Z,40.15
2019-04-26T23:36:35.883Z,35.92
2019-04-26T23:39:07.710Z,34.00
2019-04-26T23:41:41.280Z,35.05
2019-04-26T23:44:08.395Z,38.60
2019-04-26T23:46:37.515Z,38.48
2019-04-26T23:49:06.663Z,40.58
2019-04-26T23:51:38.321Z,33.40
2019-04-26T23:54:06.638Z,41.53
2019-04-26T23:56:35.802Z,38.83
2019-04-26T23:59:05.081Z,42.75
